Terminal Aerodrome Forecast
Issued by NWS Charleston, WV

Current Version | Previous Version | Graphics & Text | Print | Product List | Glossary On
Versions: 1 2 3 4 5 6 7 8 9 10 11 12 13 14 15 16 17 18 19 20 21 22 23 24 25 26
722
FTUS41 KRLX 240533
TAFPKB
TAF
KPKB 240533Z 2406/2506 17005KT P6SM OVC080
     FM241200 19009KT P6SM SCT070
     FM250000 17008KT P6SM SCT050
     FM250500 17010G17KT P6SM SCT070=

USA.gov is the U.S. government's official web portal to all federal, state and local government web resources and services.